Time;durP1;ratioP1;P1;durP2;ratioP2;P2;SDS_P1;SDS_P2;PMS_P1;PMS_P2;Temp;Humidity;BMP_temperature;BMP_pressure;BME280_temperature;BME280_humidity;BME280_pressure;Samples;Min_cycle;Max_cycle;Signal;HPM_P1;HPM_P2
2022/12/26 00:00:23;;;;;;;23.75;2.45;;;;;;;19.29;63.43;99040.50;7312035;19;129672;-67
2022/12/26 00:02:49;;;;;;;14.07;1.67;;;;;;;19.30;63.79;99036.13;7313688;19;129417;-67
2022/12/26 00:05:14;;;;;;;32.10;2.97;;;;;;;19.29;63.78;99030.06;7311966;19;129753;-65
2022/12/26 00:07:39;;;;;;;17.88;1.80;;;;;;;19.29;63.92;99014.44;7315511;19;129068;-67
2022/12/26 00:10:05;;;;;;;22.17;2.60;;;;;;;19.29;63.27;99024.84;7313142;19;129702;-65
2022/12/26 00:12:31;;;;;;;18.42;2.20;;;;;;;19.29;63.65;99030.06;7309099;19;132808;-67
2022/12/26 00:14:56;;;;;;;55.80;5.82;;;;;;;19.27;63.30;99031.16;7311983;19;129188;-65
2022/12/26 00:17:21;;;;;;;17.20;2.00;;;;;;;19.28;63.53;99023.19;7314822;19;130106;-66
2022/12/26 00:19:47;;;;;;;13.50;1.60;;;;;;;19.28;63.54;99023.19;7311890;19;129156;-66
2022/12/26 00:22:14;;;;;;;16.08;1.80;;;;;;;19.28;63.75;99033.63;7311295;19;129836;-66
2022/12/26 00:24:39;;;;;;;36.92;3.40;;;;;;;19.27;63.39;99028.53;7313451;19;130570;-67
2022/12/26 00:27:05;;;;;;;12.63;1.60;;;;;;;19.28;63.52;99031.00;7313649;19;129477;-65
2022/12/26 00:29:30;;;;;;;23.13;2.63;;;;;;;19.28;63.38;99038.81;7311527;19;129209;-65
2022/12/26 00:31:56;;;;;;;19.92;2.13;;;;;;;19.27;63.36;99047.59;7310043;19;132229;-65
2022/12/26 00:34:21;;;;;;;29.83;2.92;;;;;;;19.28;63.92;99045.81;7313707;19;129124;-65
2022/12/26 00:36:46;;;;;;;14.43;1.60;;;;;;;19.28;63.69;99038.00;7313248;19;129215;-68
2022/12/26 00:39:12;;;;;;;25.45;2.85;;;;;;;19.17;63.52;99020.72;7314319;19;128937;-66
2022/12/26 00:41:37;;;;;;;24.13;2.35;;;;;;;19.26;63.58;99030.31;7312185;19;129623;-66
2022/12/26 00:44:02;;;;;;;17.02;2.00;;;;;;;19.27;63.84;99031.16;7312373;19;129548;-66
2022/12/26 00:46:28;;;;;;;17.65;2.13;;;;;;;19.26;63.82;99035.53;7312665;19;129454;-65
2022/12/26 00:48:54;;;;;;;16.45;1.88;;;;;;;19.15;63.56;99012.22;7313592;19;129114;-66
2022/12/26 00:51:19;;;;;;;22.80;2.58;;;;;;;19.26;63.32;99030.31;7308821;19;131064;-66
2022/12/26 00:53:45;;;;;;;17.38;1.58;;;;;;;19.22;63.72;99007.28;7312804;19;129768;-67
2022/12/26 00:56:11;;;;;;;19.35;2.28;;;;;;;19.26;63.86;99025.09;7312036;19;129300;-65
2022/12/26 00:58:37;;;;;;;12.40;1.70;;;;;;;19.25;63.86;99018.22;7308537;19;129054;-66
2022/12/26 01:01:08;;;;;;;35.57;3.40;;;;;;;19.24;64.16;99018.38;7309160;19;129032;-66
2022/12/26 01:03:33;;;;;;;29.92;3.42;;;;;;;19.26;63.62;99008.63;7312179;19;129247;-67
2022/12/26 01:06:02;;;;;;;16.67;2.03;;;;;;;19.25;63.97;99013.00;7312262;19;129691;-67
2022/12/26 01:08:28;;;;;;;9.98;1.45;;;;;;;19.24;63.85;99016.59;7312525;19;129279;-65
2022/12/26 01:10:53;;;;;;;30.80;2.97;;;;;;;19.24;63.21;99027.03;7310583;19;129221;-66
2022/12/26 01:13:18;;;;;;;19.15;2.35;;;;;;;19.23;63.29;99022.78;7311746;19;129275;-67
2022/12/26 01:15:52;;;;;;;11.13;1.55;;;;;;;19.24;64.07;99024.41;7312332;19;129656;-67
2022/12/26 01:18:18;;;;;;;10.93;1.50;;;;;;;19.24;63.26;99027.03;7311723;19;129475;-67
2022/12/26 01:20:43;;;;;;;22.02;2.28;;;;;;;19.24;63.48;99031.41;7309564;19;129977;-66
2022/12/26 01:23:09;;;;;;;24.65;2.50;;;;;;;19.22;63.98;99023.72;7312637;19;129079;-65
2022/12/26 01:25:34;;;;;;;18.98;2.15;;;;;;;19.24;63.62;99021.81;7310680;19;128814;-65
2022/12/26 01:27:59;;;;;;;18.70;2.13;;;;;;;19.23;63.77;99019.34;7311972;19;129297;-67
2022/12/26 01:30:25;;;;;;;34.83;3.08;;;;;;;19.24;63.71;99015.75;7311395;19;129075;-67
2022/12/26 01:32:50;;;;;;;22.85;2.33;;;;;;;19.24;63.77;99026.19;7312701;19;129642;-66
2022/12/26 01:35:15;;;;;;;14.05;1.45;;;;;;;19.23;63.81;99014.97;7309987;19;128973;-67
2022/12/26 01:37:41;;;;;;;15.73;1.65;;;;;;;19.23;63.24;99017.56;7311849;19;129056;-66
2022/12/26 01:40:07;;;;;;;45.58;4.32;;;;;;;19.22;63.58;99018.50;7308382;19;130454;-64
2022/12/26 01:42:38;;;;;;;21.60;2.17;;;;;;;19.22;63.79;99013.28;7311934;19;129250;-66
2022/12/26 01:45:19;;;;;;;61.28;6.15;;;;;;;19.15;63.49;99004.41;7310096;19;129882;-65
2022/12/26 01:47:48;;;;;;;18.17;1.90;;;;;;;19.20;63.17;99010.03;7312008;19;129752;-66
2022/12/26 01:50:22;;;;;;;7.53;1.15;;;;;;;19.21;63.93;99014.28;7309759;19;129802;-67
2022/12/26 01:52:48;;;;;;;32.92;3.25;;;;;;;19.21;63.96;99011.66;7310641;19;129140;-68
2022/12/26 01:55:16;;;;;;;44.80;4.40;;;;;;;19.09;63.60;98991.91;7309717;19;129402;-68
2022/12/26 01:57:46;;;;;;;13.48;1.55;;;;;;;19.21;64.10;99019.47;7311529;19;129060;-65
2022/12/26 02:00:12;;;;;;;15.38;1.88;;;;;;;19.19;63.44;99024.00;7308437;19;129649;-66
2022/12/26 02:05:35;;;;;;;18.15;2.25;;;;;;;19.20;63.98;99017.84;7306772;19;129951;-67
2022/12/26 02:08:10;;;;;;;63.65;7.78;;;;;;;19.20;63.85;99020.47;7306334;19;129719;-65
2022/12/26 02:10:54;;;;;;;26.30;2.67;;;;;;;19.05;63.45;99031.41;7312018;19;129396;-64
2022/12/26 02:13:20;;;;;;;25.08;3.00;;;;;;;18.84;63.81;99021.09;7317754;19;130120;-66
2022/12/26 02:15:46;;;;;;;13.60;1.63;;;;;;;18.88;63.85;99025.09;7316411;19;129079;-65
2022/12/26 02:18:11;;;;;;;15.80;1.70;;;;;;;18.86;64.04;99014.00;7317898;19;130174;-67
2022/12/26 02:20:52;;;;;;;28.52;2.88;;;;;;;18.86;63.90;99011.38;7314718;19;131716;-66
2022/12/26 02:23:23;;;;;;;29.52;3.28;;;;;;;18.93;63.53;99017.72;7315650;19;130059;-66
2022/12/26 02:26:22;;;;;;;15.38;1.73;;;;;;;18.99;63.47;99001.50;7317023;19;129424;-64
2022/12/26 02:29:09;;;;;;;24.35;2.38;;;;;;;19.05;63.87;98997.56;7317616;19;128818;-65
2022/12/26 02:32:07;;;;;;;29.40;2.72;;;;;;;19.06;63.18;99007.84;7316519;19;130337;-67
2022/12/26 02:34:51;;;;;;;33.75;3.28;;;;;;;19.08;63.78;99005.09;7315788;19;129228;-67
2022/12/26 02:37:28;;;;;;;35.85;3.42;;;;;;;19.12;63.03;99006.47;7316830;19;128781;-68
2022/12/26 02:40:15;;;;;;;24.38;2.60;;;;;;;18.99;63.86;98970.25;7316274;19;129092;-67
2022/12/26 02:42:43;;;;;;;26.63;2.88;;;;;;;19.09;63.56;98997.13;7316871;19;129069;-65
2022/12/26 02:48:32;;;;;;;14.13;1.60;;;;;;;19.07;64.52;99003.44;7317909;19;129041;-67
2022/12/26 03:14:16;;;;;;;22.25;2.45;;;;;;;19.12;66.01;99002.06;7315125;19;129235;-65
2022/12/26 03:19:32;;;;;;;31.27;3.20;;;;;;;19.23;64.87;98999.31;7314359;19;129429;-67
2022/12/26 03:22:29;;;;;;;43.13;4.00;;;;;;;19.21;65.12;98996.03;7311911;19;129167;-65
2022/12/26 03:27:32;;;;;;;44.53;4.18;;;;;;;19.22;64.16;99002.06;7315402;19;129603;-67
2022/12/26 03:32:42;;;;;;;23.23;2.63;;;;;;;19.25;64.96;99001.78;7316202;19;129059;-66
2022/12/26 03:35:13;;;;;;;32.47;3.67;;;;;;;19.21;65.36;98988.22;7313953;19;129387;-65
2022/12/26 03:37:49;;;;;;;17.70;1.83;;;;;;;19.26;65.20;99000.81;7315396;19;129222;-65
2022/12/26 04:44:16;;;;;;;27.95;2.63;;;;;;;19.18;64.54;99038.00;7314331;19;128718;-67
2022/12/26 04:46:46;;;;;;;13.43;1.48;;;;;;;19.14;65.29;99034.00;7312314;19;129758;-67
2022/12/26 04:52:01;;;;;;;23.10;2.50;;;;;;;19.17;64.22;99046.75;7312683;19;128946;-67
2022/12/26 04:54:27;;;;;;;17.02;1.95;;;;;;;19.17;64.13;99040.75;7312940;19;129541;-65
2022/12/26 04:56:53;;;;;;;39.00;3.60;;;;;;;19.16;64.19;99046.91;7312016;19;129192;-65
2022/12/26 04:59:20;;;;;;;18.80;1.88;;;;;;;19.16;64.35;99045.13;7311603;19;133109;-67
2022/12/26 05:10:07;;;;;;;24.55;3.08;;;;;;;19.17;64.06;99049.38;7312527;19;128970;-65
2022/12/26 05:12:33;;;;;;;23.02;2.38;;;;;;;19.17;63.89;99045.97;7309919;19;130085;-68
2022/12/26 05:14:58;;;;;;;65.28;6.47;;;;;;;19.17;63.96;99041.56;7308547;19;129073;-64
2022/12/26 05:28:40;;;;;;;19.38;1.95;;;;;;;19.16;64.34;99028.66;7311571;19;129828;-67
2022/12/26 05:29:03;;;;;;;46.05;4.38;;;;;;;19.17;64.46;99041.56;7311069;19;129594;-67
2022/12/26 05:31:30;;;;;;;25.60;2.92;;;;;;;19.16;64.37;99029.50;7308916;19;131984;-67
2022/12/26 05:34:12;;;;;;;7.23;1.17;;;;;;;19.16;63.81;99023.44;7311746;19;130167;-65
2022/12/26 05:36:41;;;;;;;14.15;1.65;;;;;;;19.04;64.46;99014.94;7310287;19;129695;-67
2022/12/26 05:39:07;;;;;;;22.67;2.45;;;;;;;19.14;64.28;99041.84;7310832;19;129910;-67
2022/12/26 05:41:33;;;;;;;27.63;2.72;;;;;;;19.15;64.15;99038.28;7307529;19;132937;-66
2022/12/26 05:43:58;;;;;;;21.33;2.50;;;;;;;19.16;63.99;99047.72;7314007;19;129482;-67
2022/12/26 05:46:24;;;;;;;8.93;1.30;;;;;;;19.15;64.34;99043.50;7309430;19;128884;-66
2022/12/26 05:48:49;;;;;;;20.98;2.38;;;;;;;19.14;64.17;99049.66;7310845;19;129502;-66
2022/12/26 05:51:15;;;;;;;32.65;3.17;;;;;;;19.15;63.95;99042.66;7309108;19;129428;-67
2022/12/26 05:53:40;;;;;;;15.23;1.60;;;;;;;19.15;64.41;99033.06;7310867;19;130561;-65
2022/12/26 05:56:10;;;;;;;17.33;1.73;;;;;;;19.16;64.62;99039.09;7310011;19;129030;-67
2022/12/26 05:58:36;;;;;;;22.48;2.33;;;;;;;19.15;63.87;99033.06;7308451;19;132595;-68
2022/12/26 06:01:14;;;;;;;32.20;3.40;;;;;;;19.16;64.61;99045.13;7309485;19;129413;-66
2022/12/26 06:03:46;;;;;;;11.77;1.30;;;;;;;19.15;64.12;99055.69;7310854;19;129582;-66
2022/12/26 06:06:11;;;;;;;13.65;1.50;;;;;;;19.03;63.67;99023.75;7311089;19;129484;-66
2022/12/26 06:08:37;;;;;;;9.80;1.15;;;;;;;19.14;64.20;99041.00;7310784;19;129065;-68
2022/12/26 06:11:08;;;;;;;29.08;3.15;;;;;;;19.14;64.56;99041.00;7309097;19;130394;-68
2022/12/26 06:13:34;;;;;;;30.42;3.03;;;;;;;19.12;64.10;99046.34;7310782;19;129027;-65
2022/12/26 06:16:03;;;;;;;17.05;1.92;;;;;;;19.13;64.71;99040.19;7311112;19;128853;-67
2022/12/26 06:18:28;;;;;;;16.42;1.83;;;;;;;19.13;64.06;99040.19;7310199;19;130204;-66
2022/12/26 06:20:54;;;;;;;10.05;1.42;;;;;;;19.12;64.37;99030.72;7307866;19;130164;-65
2022/12/26 06:23:19;;;;;;;35.70;3.67;;;;;;;19.13;64.32;99032.38;7309956;19;128972;-67
2022/12/26 06:25:52;;;;;;;14.90;1.80;;;;;;;19.15;64.44;99027.88;7309506;19;129353;-66
2022/12/26 06:28:17;;;;;;;14.90;1.60;;;;;;;19.11;64.24;99023.88;7309121;19;129136;-65
2022/12/26 06:30:43;;;;;;;16.30;1.48;;;;;;;19.13;64.17;99019.34;7309557;19;129163;-67
2022/12/26 06:33:08;;;;;;;39.45;3.40;;;;;;;19.14;64.23;99021.00;7311740;19;128913;-65
2022/12/26 06:35:33;;;;;;;11.38;1.25;;;;;;;19.14;64.28;99031.41;7309759;19;129075;-66
2022/12/26 06:37:59;;;;;;;21.80;2.30;;;;;;;19.12;64.31;99016.88;7309543;19;129145;-66
2022/12/26 06:40:24;;;;;;;30.20;2.85;;;;;;;19.13;64.32;99019.34;7308758;19;130478;-67
2022/12/26 06:42:49;;;;;;;38.85;3.85;;;;;;;19.11;63.91;99042.09;7310049;19;128931;-65
2022/12/26 06:45:15;;;;;;;15.05;1.90;;;;;;;19.13;64.14;99044.56;7307329;19;129567;-66
2022/12/26 06:47:40;;;;;;;15.90;1.55;;;;;;;19.13;64.18;99039.38;7310553;19;129901;-66
2022/12/26 06:50:06;;;;;;;29.85;3.15;;;;;;;19.04;64.07;99025.38;7307949;19;129458;-66
2022/12/26 06:52:31;;;;;;;24.67;2.67;;;;;;;19.12;64.20;99059.38;7307494;19;129478;-65
2022/12/26 06:54:57;;;;;;;42.42;5.00;;;;;;;19.12;64.12;99063.78;7307335;19;128926;-67
2022/12/26 06:57:23;;;;;;;21.80;2.50;;;;;;;19.11;64.20;99062.94;7310868;19;129489;-66
2022/12/26 06:59:48;;;;;;;35.25;3.15;;;;;;;19.12;63.89;99064.59;7316050;19;129144;-64
2022/12/26 07:02:13;;;;;;;14.75;1.50;;;;;;;19.12;64.07;99067.19;7313874;19;129507;-66
2022/12/26 07:04:39;;;;;;;16.27;1.67;;;;;;;18.99;64.12;99064.03;7315454;19;129399;-65
2022/12/26 07:07:04;;;;;;;17.23;1.80;;;;;;;19.12;64.19;99079.41;7314589;19;129309;-68
2022/12/26 07:09:29;;;;;;;42.13;4.13;;;;;;;19.01;63.61;99062.13;7315281;19;129130;-67
2022/12/26 07:11:55;;;;;;;20.33;2.13;;;;;;;19.11;64.06;99083.78;7315015;19;129054;-67
2022/12/26 07:14:20;;;;;;;22.98;2.45;;;;;;;19.12;63.73;99090.66;7314562;19;130076;-66
2022/12/26 07:16:46;;;;;;;15.02;1.42;;;;;;;19.09;63.87;99080.50;7313200;19;130823;-65
2022/12/26 07:19:13;;;;;;;36.33;3.58;;;;;;;19.09;63.82;99080.50;7314779;19;129762;-67
2022/12/26 07:21:39;;;;;;;16.30;1.77;;;;;;;19.11;63.70;99086.41;7314033;19;129389;-65
2022/12/26 07:24:04;;;;;;;18.67;2.15;;;;;;;19.11;63.83;99104.63;7316097;19;129283;-67
2022/12/26 07:26:30;;;;;;;22.38;2.53;;;;;;;19.08;63.60;99084.06;7313775;19;129152;-66
2022/12/26 07:28:57;;;;;;;24.63;2.35;;;;;;;19.09;63.85;99085.72;7315401;19;129369;-67
2022/12/26 07:31:23;;;;;;;16.60;2.10;;;;;;;19.10;64.22;99089.16;7314792;19;129897;-68
2022/12/26 07:33:51;;;;;;;16.52;1.85;;;;;;;19.09;63.68;99096.13;7315323;19;129904;-65
2022/12/26 07:36:17;;;;;;;20.40;1.95;;;;;;;19.09;63.86;99087.47;7314562;19;129685;-66
2022/12/26 07:38:42;;;;;;;32.43;3.07;;;;;;;19.07;63.83;99079.81;7315505;19;129103;-68
2022/12/26 07:43:52;;;;;;;15.80;1.83;;;;;;;19.10;63.64;99099.56;7316052;19;129440;-67
2022/12/26 07:46:17;;;;;;;19.42;2.13;;;;;;;19.09;63.61;99101.34;7314124;19;130692;-64
2022/12/26 07:48:42;;;;;;;25.58;2.50;;;;;;;18.97;63.72;99081.56;7315513;19;130330;-66
2022/12/26 07:51:08;;;;;;;26.65;2.63;;;;;;;19.08;63.53;99098.88;7312921;19;129102;-67
2022/12/26 07:53:33;;;;;;;24.30;2.67;;;;;;;19.08;63.75;99115.34;7315484;19;129748;-67
2022/12/26 07:55:59;;;;;;;17.35;2.00;;;;;;;19.09;63.76;99126.56;7312325;19;131744;-66
2022/12/26 07:58:24;;;;;;;37.03;3.55;;;;;;;19.00;63.61;99104.78;7315226;19;129191;-64
2022/12/26 08:00:50;;;;;;;17.75;2.10;;;;;;;19.07;63.67;99118.09;7315098;19;129533;-67
2022/12/26 08:03:15;;;;;;;11.52;1.30;;;;;;;19.09;63.58;99114.38;7314798;19;129273;-67
2022/12/26 08:05:44;;;;;;;11.15;1.75;;;;;;;19.09;64.57;99116.97;7313333;19;129117;-66
2022/12/26 08:08:09;;;;;;;38.60;3.58;;;;;;;18.97;64.24;99105.03;7312898;19;129278;-65
2022/12/26 08:10:35;;;;;;;21.83;2.05;;;;;;;19.08;63.43;99110.13;7313478;19;128993;-66
2022/12/26 08:13:00;;;;;;;22.50;1.90;;;;;;;19.08;64.08;99097.09;7315371;19;129090;-67
2022/12/26 08:15:25;;;;;;;19.88;2.15;;;;;;;19.08;64.22;99102.31;7312599;19;130008;-65
2022/12/26 08:17:51;;;;;;;27.67;2.67;;;;;;;18.97;63.88;99092.00;7314084;19;129607;-65
2022/12/26 08:20:16;;;;;;;26.00;2.58;;;;;;;19.08;63.93;99110.13;7313401;19;129457;-67
2022/12/26 08:22:41;;;;;;;22.73;2.72;;;;;;;19.07;64.01;99129.31;7312795;19;129063;-67
2022/12/26 08:25:07;;;;;;;39.30;4.38;;;;;;;19.08;63.68;99130.97;7309465;19;130493;-65
2022/12/26 08:27:33;;;;;;;17.13;1.90;;;;;;;19.05;63.88;99133.03;7311469;19;129270;-65
2022/12/26 08:29:58;;;;;;;16.00;1.83;;;;;;;19.09;64.20;99129.16;7313573;19;128950;-67
2022/12/26 08:32:23;;;;;;;18.40;1.98;;;;;;;19.00;63.86;99122.19;7310869;19;129216;-67
2022/12/26 08:34:49;;;;;;;38.38;3.50;;;;;;;19.07;64.15;99111.06;7312201;19;130366;-68
2022/12/26 08:37:14;;;;;;;17.67;1.80;;;;;;;19.07;64.14;99108.47;7313543;19;129606;-67
2022/12/26 08:39:39;;;;;;;13.38;1.58;;;;;;;19.06;63.58;99112.03;7311616;19;129516;-66
2022/12/26 08:42:05;;;;;;;15.38;1.50;;;;;;;18.97;63.61;99109.44;7310466;19;129373;-66
2022/12/26 08:44:30;;;;;;;38.00;3.50;;;;;;;19.07;63.70;99115.47;7312103;19;130189;-67
2022/12/26 08:46:56;;;;;;;25.80;2.65;;;;;;;19.06;63.56;99106.81;7312207;19;129236;-66
2022/12/26 08:49:21;;;;;;;16.65;2.08;;;;;;;19.07;63.97;99111.06;7312595;19;129144;-65
2022/12/26 08:51:46;;;;;;;15.70;1.92;;;;;;;18.95;64.17;99088.72;7310544;19;129252;-67
2022/12/26 08:54:12;;;;;;;32.53;3.03;;;;;;;19.06;63.95;99112.03;7312567;19;129474;-67
2022/12/26 08:56:37;;;;;;;9.70;1.13;;;;;;;19.06;64.04;99125.06;7313238;19;129699;-67
2022/12/26 08:59:02;;;;;;;23.30;2.53;;;;;;;19.06;64.02;99117.25;7309658;19;129082;-66
2022/12/26 09:01:29;;;;;;;15.80;1.88;;;;;;;19.05;64.11;99126.03;7310575;19;129443;-65
2022/12/26 09:03:57;;;;;;;36.95;3.65;;;;;;;19.05;64.07;99130.41;7313528;19;130097;-66
2022/12/26 09:06:23;;;;;;;16.10;1.75;;;;;;;19.04;63.65;99126.97;7312198;19;129636;-64
2022/12/26 09:08:49;;;;;;;14.90;1.73;;;;;;;19.06;64.10;99113.81;7312792;19;129022;-74
2022/12/26 09:11:18;;;;;;;14.73;1.52;;;;;;;18.94;64.20;99081.84;7311222;19;128944;-68
2022/12/26 09:13:44;;;;;;;41.83;3.78;;;;;;;19.05;63.87;99115.63;7311476;19;129492;-66
2022/12/26 09:16:18;;;;;;;16.70;1.80;;;;;;;19.05;64.64;99120.00;7311567;19;129809;-66
2022/12/26 09:18:45;;;;;;;11.73;1.45;;;;;;;19.04;63.64;99134.78;7312735;19;129165;-66
2022/12/26 09:21:12;;;;;;;13.77;1.50;;;;;;;19.04;63.45;99126.16;7309336;19;129949;-67
2022/12/26 09:23:38;;;;;;;31.08;3.00;;;;;;;19.01;63.73;99111.63;7311658;19;129483;-65
2022/12/26 09:26:05;;;;;;;52.20;5.10;;;;;;;19.05;64.04;99130.41;7310022;19;129201;-65
2022/12/26 09:28:31;;;;;;;14.68;1.92;;;;;;;19.04;63.64;99147.81;7310562;19;129203;-66
2022/12/26 09:31:01;;;;;;;23.58;2.70;;;;;;;19.04;63.75;99145.22;7309876;19;129026;-66
2022/12/26 09:33:28;;;;;;;31.02;2.83;;;;;;;19.05;63.84;99148.66;7311439;19;129709;-66
2022/12/26 09:35:53;;;;;;;26.63;2.92;;;;;;;18.98;63.37;99135.34;7311596;19;129114;-68
2022/12/26 09:38:19;;;;;;;14.20;1.80;;;;;;;19.04;63.63;99134.00;7312595;19;128913;-65
2022/12/26 09:41:08;;;;;;;14.48;1.55;;;;;;;19.05;64.20;99130.41;7310556;19;128786;-67
2022/12/26 09:43:48;;;;;;;20.65;2.45;;;;;;;19.04;64.58;99134.78;7310687;19;129411;-67
2022/12/26 09:46:34;;;;;;;15.43;1.73;;;;;;;19.04;64.06;99150.41;7309584;19;130905;-68
2022/12/26 09:49:08;;;;;;;12.00;1.58;;;;;;;19.03;64.38;99140.97;7310453;19;129095;-65
2022/12/26 09:51:35;;;;;;;33.45;3.08;;;;;;;19.03;63.67;99140.97;7310182;19;129718;-66
2022/12/26 09:54:03;;;;;;;33.50;3.47;;;;;;;19.02;64.14;99136.69;7313471;19;129039;-66
2022/12/26 09:56:30;;;;;;;18.48;1.88;;;;;;;19.02;63.69;99147.13;7308526;19;131988;-64
2022/12/26 09:59:06;;;;;;;5.28;0.75;;;;;;;19.01;64.38;99140.28;7311236;19;128992;-67
2022/12/26 10:01:35;;;;;;;17.20;1.83;;;;;;;18.91;63.96;99110.78;7309124;19;129810;-66
2022/12/26 10:04:06;;;;;;;43.78;4.07;;;;;;;19.03;63.85;99127.13;7310389;19;129704;-67
2022/12/26 10:06:55;;;;;;;17.80;2.00;;;;;;;19.03;64.05;99119.28;7310095;19;129620;-65
2022/12/26 10:09:35;;;;;;;24.73;2.40;;;;;;;19.02;64.01;99108.03;7307975;19;130561;-68
2022/12/26 10:12:13;;;;;;;24.33;2.55;;;;;;;19.02;64.10;99121.06;7308918;19;129779;-65
2022/12/26 10:14:54;;;;;;;16.48;1.70;;;;;;;19.02;64.37;99120.25;7310877;19;129608;-66
2022/12/26 10:17:47;;;;;;;28.42;2.70;;;;;;;19.02;64.23;99113.25;7310419;19;130318;-67
2022/12/26 10:20:22;;;;;;;11.02;1.33;;;;;;;19.01;63.41;99113.38;7308477;19;128999;-66
2022/12/26 10:22:56;;;;;;;16.20;1.63;;;;;;;19.03;64.25;99101.91;7307258;19;129213;-67
2022/12/26 10:25:33;;;;;;;21.52;2.47;;;;;;;18.99;63.78;99116.13;7310219;19;129798;-66
2022/12/26 10:28:00;;;;;;;23.67;2.38;;;;;;;18.93;63.48;99119.28;7307352;19;132194;-66
2022/12/26 10:30:34;;;;;;;32.55;3.10;;;;;;;19.02;64.39;99130.69;7309607;19;129172;-65
2022/12/26 10:33:15;;;;;;;17.45;1.77;;;;;;;19.01;63.95;99129.03;7313673;19;129215;-66
2022/12/26 10:35:44;;;;;;;16.45;1.90;;;;;;;18.91;64.34;99102.97;7316783;19;129972;-68
2022/12/26 10:38:16;;;;;;;19.48;2.33;;;;;;;19.01;63.76;99109.00;7316723;19;129127;-72
2022/12/26 10:40:47;;;;;;;15.07;1.50;;;;;;;19.00;64.44;99112.59;7315341;19;129606;-67
2022/12/26 10:43:31;;;;;;;29.00;3.17;;;;;;;19.02;64.32;99108.03;7315217;19;129467;-65
2022/12/26 10:46:27;;;;;;;32.55;3.10;;;;;;;19.01;64.30;99102.97;7312762;19;129335;-64
2022/12/26 10:48:53;;;;;;;26.88;2.53;;;;;;;19.00;63.67;99107.38;7316348;19;129711;-66
2022/12/26 10:51:18;;;;;;;21.85;2.03;;;;;;;19.00;63.59;99096.97;7314625;19;129066;-67
2022/12/26 10:53:49;;;;;;;15.45;1.63;;;;;;;18.95;64.01;99093.09;7316826;19;129099;-66
2022/12/26 10:56:16;;;;;;;16.65;1.80;;;;;;;19.00;63.81;99091.75;7315499;19;129445;-66
2022/12/26 10:58:43;;;;;;;19.83;1.95;;;;;;;19.00;64.32;99104.78;7314036;19;133067;-66
2022/12/26 11:01:26;;;;;;;32.15;2.92;;;;;;;19.02;64.50;99109.84;7314906;19;128961;-66
2022/12/26 11:03:57;;;;;;;22.48;2.20;;;;;;;19.00;64.46;99112.59;7315842;19;129168;-67
2022/12/26 11:06:31;;;;;;;15.52;2.00;;;;;;;18.99;64.05;99108.31;7315708;19;129195;-67
2022/12/26 11:08:57;;;;;;;17.65;2.20;;;;;;;19.00;63.80;99112.59;7314763;19;129272;-66
2022/12/26 11:11:47;;;;;;;23.25;2.28;;;;;;;18.98;64.15;99106.69;7313727;19;129190;-67
2022/12/26 11:14:36;;;;;;;14.73;1.73;;;;;;;19.01;64.29;99100.38;7314668;19;129386;-68
2022/12/26 11:17:12;;;;;;;16.20;1.85;;;;;;;19.00;64.50;99101.34;7314692;19;129512;-67
2022/12/26 11:19:40;;;;;;;21.85;2.15;;;;;;;19.00;63.72;99098.72;7314331;19;129108;-65
2022/12/26 11:22:20;;;;;;;34.92;3.33;;;;;;;19.00;64.39;99099.56;7312948;19;128986;-67
2022/12/26 11:24:45;;;;;;;21.25;2.22;;;;;;;18.97;64.25;99094.59;7316430;19;129700;-67
2022/12/26 11:27:22;;;;;;;13.45;1.40;;;;;;;18.88;64.48;99086.78;7313672;19;128996;-66
2022/12/26 11:29:48;;;;;;;17.75;1.92;;;;;;;18.98;63.72;99109.28;7313979;19;129610;-67
2022/12/26 11:32:18;;;;;;;20.50;1.90;;;;;;;19.00;63.88;99107.38;7314266;19;130692;-66
2022/12/26 11:34:46;;;;;;;32.33;2.55;;;;;;;18.98;63.78;99101.47;7316792;19;128987;-64
2022/12/26 11:37:26;;;;;;;15.10;1.52;;;;;;;18.99;63.88;99105.72;7315241;19;129064;-65
2022/12/26 11:39:52;;;;;;;17.02;1.77;;;;;;;18.98;64.21;99101.47;7315741;19;129249;-67
2022/12/26 11:42:21;;;;;;;25.30;2.83;;;;;;;18.99;64.32;99099.69;7310288;19;129244;-66
2022/12/26 11:44:51;;;;;;;22.48;2.20;;;;;;;18.99;64.24;99110.13;7313547;19;129524;-66
2022/12/26 11:47:20;;;;;;;36.90;3.42;;;;;;;18.98;64.25;99092.81;7313548;19;130337;-67
2022/12/26 11:49:48;;;;;;;15.35;1.48;;;;;;;18.97;64.16;99092.00;7315355;19;130379;-67
2022/12/26 11:52:32;;;;;;;10.32;1.20;;;;;;;19.00;64.21;99081.34;7312298;19;128949;-65
2022/12/26 11:54:58;;;;;;;18.17;2.22;;;;;;;18.97;63.65;99063.34;7313442;19;128976;-64
2022/12/26 11:57:29;;;;;;;19.27;1.80;;;;;;;18.98;64.44;99078.03;7314173;19;129711;-65
2022/12/26 12:00:15;;;;;;;39.00;3.50;;;;;;;18.99;64.36;99079.66;7311735;19;132068;-67
2022/12/26 12:02:41;;;;;;;38.83;3.42;;;;;;;18.96;63.63;99087.75;7312493;19;130145;-65
2022/12/26 12:05:14;;;;;;;42.20;4.35;;;;;;;18.97;64.53;99086.78;7312957;19;129824;-65
2022/12/26 12:08:05;;;;;;;9.52;1.05;;;;;;;18.98;63.97;99093.66;7314814;19;129601;-66
2022/12/26 12:10:46;;;;;;;24.48;2.58;;;;;;;18.98;64.42;99083.25;7313223;19;129546;-66
2022/12/26 12:13:22;;;;;;;13.98;1.52;;;;;;;18.99;64.23;99094.50;7314104;19;129167;-65
2022/12/26 12:15:58;;;;;;;16.98;1.77;;;;;;;18.97;64.36;99086.78;7312328;19;129360;-65
2022/12/26 12:18:46;;;;;;;24.50;2.60;;;;;;;18.98;64.32;99088.44;7313026;19;129516;-66
2022/12/26 12:21:26;;;;;;;15.57;1.63;;;;;;;18.98;64.18;99087.63;7313068;19;129168;-65
2022/12/26 12:24:16;;;;;;;18.60;1.95;;;;;;;18.99;63.79;99071.84;7312740;19;128754;-67
2022/12/26 12:26:53;;;;;;;24.98;2.33;;;;;;;18.97;64.02;99086.78;7312307;19;129285;-66
2022/12/26 12:29:21;;;;;;;33.13;3.00;;;;;;;18.96;63.82;99090.34;7313866;19;129447;-67
2022/12/26 12:32:28;;;;;;;24.65;2.38;;;;;;;18.96;64.11;99066.09;7311661;19;129176;-65
2022/12/26 12:35:07;;;;;;;40.20;4.10;;;;;;;18.97;63.82;99060.75;7308918;19;129001;-64
2022/12/26 12:37:45;;;;;;;41.75;3.97;;;;;;;18.97;64.08;99065.16;7313122;19;129448;-68
2022/12/26 12:40:34;;;;;;;29.45;2.83;;;;;;;18.97;64.14;99060.75;7311174;19;130347;-66
2022/12/26 12:43:36;;;;;;;24.33;2.42;;;;;;;18.98;64.32;99067.59;7310375;19;129807;-66
2022/12/26 12:46:16;;;;;;;34.22;3.25;;;;;;;18.84;64.35;99054.97;7312708;19;129575;-66
2022/12/26 12:49:19;;;;;;;24.42;2.50;;;;;;;18.98;64.24;99077.19;7310933;19;129457;-67
2022/12/26 12:52:09;;;;;;;23.83;2.35;;;;;;;18.97;63.93;99063.34;7311073;19;129041;-67
2022/12/26 12:54:34;;;;;;;25.30;2.55;;;;;;;18.95;63.59;99062.69;7310491;19;129148;-67
2022/12/26 12:57:29;;;;;;;40.40;3.92;;;;;;;18.95;63.65;99065.28;7311120;19;129075;-65
2022/12/26 13:00:02;;;;;;;35.20;3.20;;;;;;;18.96;64.27;99079.94;7307728;19;129294;-66
2022/12/26 13:02:51;;;;;;;18.05;2.20;;;;;;;18.96;64.48;99100.78;7309334;19;129171;-64
2022/12/26 13:05:35;;;;;;;33.53;3.30;;;;;;;18.95;63.75;99135.63;7307217;19;129322;-67
2022/12/26 13:08:06;;;;;;;22.40;2.50;;;;;;;18.95;64.25;99168.63;7308412;19;129554;-67
2022/12/26 13:10:34;;;;;;;24.98;2.63;;;;;;;18.81;64.12;99143.78;7311269;19;129311;-64
2022/12/26 13:13:26;;;;;;;12.02;1.30;;;;;;;18.96;64.54;99178.91;7309714;19;130267;-68
2022/12/26 13:15:56;;;;;;;15.63;1.80;;;;;;;18.87;64.09;99164.09;7311534;19;129338;-65
2022/12/26 13:18:25;;;;;;;20.50;2.10;;;;;;;18.95;63.80;99182.50;7308584;19;129327;-67
2022/12/26 13:21:09;;;;;;;38.13;3.35;;;;;;;18.97;64.50;99185.78;7309620;19;129414;-65
2022/12/26 13:26:44;;;;;;;23.83;2.40;;;;;;;18.93;64.21;99176.59;7310241;19;129351;-67
2022/12/26 13:29:23;;;;;;;40.05;3.67;;;;;;;18.93;63.98;99176.59;7312805;19;129521;-65
2022/12/26 13:31:49;;;;;;;23.77;2.33;;;;;;;18.94;64.22;99175.63;7310138;19;128963;-67
2022/12/26 13:34:17;;;;;;;11.70;1.17;;;;;;;18.94;63.87;99164.41;7312238;19;130911;-65
2022/12/26 13:36:49;;;;;;;17.77;1.90;;;;;;;18.95;64.37;99172.06;7310491;19;129119;-65
2022/12/26 13:39:20;;;;;;;27.77;2.63;;;;;;;18.94;63.99;99169.59;7311556;19;129537;-66